<?xml version="1.0" encoding="UTF-8" standalone="no" ?>
<gpx xmlns="http://www.topografix.com/GPX/1/1" xmlns:xsi="http://www.w3.org/2001/XMLSchema-instance" xsi:schemaLocation="http://www.topografix.com/GPX/1/1 http://www.topografix.com/GPX/1/1/gpx.xsd" version="1.1" creator="VisuGPX - https://www.visugpx.com">
  <metadata>
    <name>Prospection chemins praticables 1</name>
  </metadata>
  <trk>
    <name><![CDATA[Prospection chemins praticables 1_4]]></name>
    <trkseg>
      <trkpt lat="47.71126" lon="5.08284">
        <ele>436.79</ele>
        <time>2021-08-27T13:53:04Z</time>
      </trkpt>
      <trkpt lat="47.71126" lon="5.08287">
        <ele>436.63</ele>
        <time>2021-08-27T13:53:26Z</time>
      </trkpt>
      <trkpt lat="47.71127" lon="5.08271">
        <ele>433.78</ele>
        <time>2021-08-27T13:53:50Z</time>
      </trkpt>
      <trkpt lat="47.71128" lon="5.08261">
        <ele>431.3</ele>
        <time>2021-08-27T13:54:03Z</time>
      </trkpt>
      <trkpt lat="47.71131" lon="5.08249">
        <ele>428.21</ele>
        <time>2021-08-27T13:54:18Z</time>
      </trkpt>
      <trkpt lat="47.71132" lon="5.08245">
        <ele>426.54</ele>
        <time>2021-08-27T13:54:42Z</time>
      </trkpt>
      <trkpt lat="47.71132" lon="5.08239">
        <ele>423.36</ele>
        <time>2021-08-27T13:54:57Z</time>
      </trkpt>
      <trkpt lat="47.71132" lon="5.08229">
        <ele>420.32</ele>
        <time>2021-08-27T13:55:15Z</time>
      </trkpt>
      <trkpt lat="47.71134" lon="5.08225">
        <ele>420.23</ele>
        <time>2021-08-27T13:55:20Z</time>
      </trkpt>
      <trkpt lat="47.71144" lon="5.08219">
        <ele>421.3</ele>
        <time>2021-08-27T13:55:32Z</time>
      </trkpt>
      <trkpt lat="47.71146" lon="5.08217">
        <ele>421.3</ele>
        <time>2021-08-27T13:55:36Z</time>
      </trkpt>
      <trkpt lat="47.71163" lon="5.0821">
        <ele>421.65</ele>
        <time>2021-08-27T13:55:49Z</time>
      </trkpt>
      <trkpt lat="47.71173" lon="5.08209">
        <ele>422.86</ele>
        <time>2021-08-27T13:56:04Z</time>
      </trkpt>
      <trkpt lat="47.71178" lon="5.08208">
        <ele>423.33</ele>
        <time>2021-08-27T13:56:15Z</time>
      </trkpt>
      <trkpt lat="47.7119" lon="5.08201">
        <ele>423.23</ele>
        <time>2021-08-27T13:56:28Z</time>
      </trkpt>
      <trkpt lat="47.71196" lon="5.08199">
        <ele>423.16</ele>
        <time>2021-08-27T13:56:37Z</time>
      </trkpt>
      <trkpt lat="47.71209" lon="5.08193">
        <ele>422.83</ele>
        <time>2021-08-27T13:56:50Z</time>
      </trkpt>
      <trkpt lat="47.71216" lon="5.08193">
        <ele>421.99</ele>
        <time>2021-08-27T13:56:58Z</time>
      </trkpt>
      <trkpt lat="47.7123" lon="5.08198">
        <ele>421.67</ele>
        <time>2021-08-27T13:57:11Z</time>
      </trkpt>
      <trkpt lat="47.71239" lon="5.0821">
        <ele>421.47</ele>
        <time>2021-08-27T13:57:28Z</time>
      </trkpt>
      <trkpt lat="47.71245" lon="5.08214">
        <ele>421.28</ele>
        <time>2021-08-27T13:57:34Z</time>
      </trkpt>
      <trkpt lat="47.71256" lon="5.08221">
        <ele>420.77</ele>
        <time>2021-08-27T13:57:48Z</time>
      </trkpt>
      <trkpt lat="47.71257" lon="5.08221">
        <ele>420.67</ele>
        <time>2021-08-27T13:57:50Z</time>
      </trkpt>
      <trkpt lat="47.71266" lon="5.08228">
        <ele>420.28</ele>
        <time>2021-08-27T13:58:01Z</time>
      </trkpt>
      <trkpt lat="47.71275" lon="5.08236">
        <ele>419.33</ele>
        <time>2021-08-27T13:58:14Z</time>
      </trkpt>
      <trkpt lat="47.71281" lon="5.08245">
        <ele>420.32</ele>
        <time>2021-08-27T13:58:28Z</time>
      </trkpt>
      <trkpt lat="47.71283" lon="5.08245">
        <ele>419.11</ele>
        <time>2021-08-27T13:58:58Z</time>
      </trkpt>
      <trkpt lat="47.71284" lon="5.08246">
        <ele>418.78</ele>
        <time>2021-08-27T13:59:13Z</time>
      </trkpt>
      <trkpt lat="47.71287" lon="5.08248">
        <ele>418.96</ele>
        <time>2021-08-27T13:59:27Z</time>
      </trkpt>
      <trkpt lat="47.7128" lon="5.08244">
        <ele>418.8</ele>
        <time>2021-08-27T13:59:45Z</time>
      </trkpt>
      <trkpt lat="47.71279" lon="5.08243">
        <ele>418.71</ele>
        <time>2021-08-27T13:59:47Z</time>
      </trkpt>
    </trkseg>
  </trk>
</gpx>